createdAt,value
2022-11-30T00:00:44.953Z,13.77
2022-11-30T00:05:47.820Z,12.80
2022-11-30T00:10:50.383Z,13.43
2022-11-30T00:15:52.969Z,13.60
2022-11-30T00:20:57.265Z,13.53
2022-11-30T00:26:03.760Z,13.87
2022-11-30T00:31:10.605Z,14.80
2022-11-30T00:36:16.078Z,14.17
2022-11-30T00:41:20.499Z,12.63
2022-11-30T00:46:23.093Z,13.30
2022-11-30T00:51:25.671Z,13.43
2022-11-30T00:56:28.955Z,12.63
2022-11-30T01:01:31.848Z,13.70
2022-11-30T01:06:34.866Z,12.30
2022-11-30T01:11:37.433Z,12.63
2022-11-30T01:16:40.015Z,14.20
2022-11-30T01:21:42.764Z,12.80
2022-11-30T01:26:45.345Z,13.17
2022-11-30T01:31:47.905Z,13.03
2022-11-30T01:36:50.486Z,13.40
2022-11-30T01:41:55.147Z,13.90
2022-11-30T01:47:03.087Z,13.70
2022-11-30T01:52:10.711Z,14.83
2022-11-30T01:57:24.205Z,13.77
2022-11-30T02:02:34.212Z,12.47
2022-11-30T02:07:37.190Z,12.27
2022-11-30T02:12:56.558Z,12.20
2022-11-30T02:18:32.238Z,12.53
2022-11-30T02:24:05.423Z,11.77
2022-11-30T02:29:19.899Z,12.93
2022-11-30T02:34:25.817Z,11.10
2022-11-30T02:39:28.407Z,13.30
2022-11-30T02:44:31.454Z,11.77
2022-11-30T02:49:46.701Z,12.73
2022-11-30T02:54:49.724Z,11.07
2022-11-30T02:59:52.935Z,11.77
2022-11-30T03:04:55.493Z,12.47
2022-11-30T03:09:59.997Z,12.63
2022-11-30T03:15:02.580Z,11.57
2022-11-30T03:20:07.366Z,11.13
2022-11-30T03:25:10.381Z,11.33
2022-11-30T03:30:13.232Z,11.47
2022-11-30T03:35:15.867Z,12.07
2022-11-30T03:40:18.837Z,13.63
2022-11-30T03:45:21.353Z,12.20
2022-11-30T03:50:23.918Z,13.03
2022-11-30T03:55:26.479Z,13.30
2022-11-30T04:00:29.102Z,12.23
2022-11-30T04:05:32.186Z,14.40
2022-11-30T04:10:35.048Z,12.73
2022-11-30T04:15:37.641Z,11.80
2022-11-30T04:20:40.894Z,13.23
2022-11-30T04:25:43.508Z,13.50
2022-11-30T04:30:46.615Z,13.13
2022-11-30T04:35:52.050Z,12.17
2022-11-30T04:40:54.744Z,12.03
2022-11-30T04:45:57.304Z,13.00
2022-11-30T04:51:06.021Z,11.87
2022-11-30T04:56:10.598Z,18.40
2022-11-30T05:01:13.217Z,13.27
2022-11-30T05:06:15.782Z,12.77
2022-11-30T05:11:18.346Z,12.77
2022-11-30T05:16:20.985Z,12.60
2022-11-30T05:21:24.043Z,14.17
2022-11-30T05:26:26.684Z,13.80
2022-11-30T05:31:29.317Z,13.87
2022-11-30T05:36:31.907Z,13.43
2022-11-30T05:41:34.484Z,13.43
2022-11-30T05:46:40.948Z,12.67
2022-11-30T05:51:43.751Z,13.63
2022-11-30T05:56:50.313Z,15.30
2022-11-30T06:01:57.092Z,17.10
2022-11-30T06:07:00.034Z,16.30
2022-11-30T06:12:02.559Z,17.50
2022-11-30T06:17:05.138Z,18.30
2022-11-30T06:22:07.619Z,20.13
2022-11-30T06:27:10.190Z,20.17
2022-11-30T06:32:12.784Z,20.97
2022-11-30T06:37:15.452Z,19.80
2022-11-30T06:42:19.787Z,16.80
2022-11-30T06:47:22.284Z,19.23
2022-11-30T06:52:25.055Z,17.57
2022-11-30T06:57:30.551Z,15.70
2022-11-30T07:02:33.044Z,15.50
2022-11-30T07:07:36.289Z,15.53
2022-11-30T07:12:38.775Z,16.77
2022-11-30T07:17:41.262Z,18.73
2022-11-30T07:22:43.886Z,16.23
2022-11-30T07:27:46.487Z,17.00
2022-11-30T07:32:49.583Z,17.03
2022-11-30T07:37:52.199Z,19.70
2022-11-30T07:42:57.819Z,18.13
2022-11-30T07:48:00.449Z,18.80
2022-11-30T07:53:03.159Z,19.33
2022-11-30T07:58:06.037Z,19.47
2022-11-30T08:03:08.756Z,18.37
2022-11-30T08:08:11.295Z,18.17
2022-11-30T08:13:13.888Z,19.53
2022-11-30T08:18:16.454Z,18.53
2022-11-30T08:23:19.052Z,20.27
2022-11-30T08:28:21.871Z,19.23
2022-11-30T08:33:24.671Z,20.63
2022-11-30T08:38:28.410Z,20.63
2022-11-30T08:43:31.194Z,19.47
2022-11-30T08:48:34.978Z,19.10
2022-11-30T08:53:38.371Z,19.23
2022-11-30T08:58:41.635Z,19.07
2022-11-30T09:03:47.052Z,18.20
2022-11-30T09:08:51.579Z,18.00
2022-11-30T09:13:55.863Z,19.80
2022-11-30T09:18:58.502Z,20.63
2022-11-30T09:24:01.292Z,19.43
2022-11-30T09:29:04.174Z,20.50
2022-11-30T09:34:06.848Z,19.13
2022-11-30T09:39:13.162Z,20.83
2022-11-30T09:44:33.995Z,19.00
2022-11-30T09:49:40.984Z,19.40
2022-11-30T09:54:45.846Z,17.83
2022-11-30T09:59:54.987Z,18.40
2022-11-30T10:04:58.439Z,19.53
2022-11-30T10:10:34.266Z,21.00
2022-11-30T10:15:54.369Z,19.00
2022-11-30T10:21:12.274Z,20.30
2022-11-30T10:26:16.773Z,21.00
2022-11-30T10:31:28.733Z,20.50
2022-11-30T10:36:39.698Z,20.90
2022-11-30T10:41:56.080Z,21.07
2022-11-30T10:47:03.242Z,21.57
2022-11-30T10:52:08.966Z,22.03
2022-11-30T10:57:14.621Z,23.00
2022-11-30T11:02:35.890Z,20.80
2022-11-30T11:07:49.650Z,21.98
2022-11-30T11:12:54.800Z,22.23
2022-11-30T11:18:16.057Z,21.60
2022-11-30T11:23:27.461Z,21.75
2022-11-30T11:28:31.523Z,20.80
2022-11-30T11:33:34.315Z,20.97
2022-11-30T11:38:43.854Z,22.17
2022-11-30T11:44:16.804Z,22.37
2022-11-30T11:49:24.031Z,21.90
2022-11-30T11:54:35.681Z,21.83
2022-11-30T11:59:46.106Z,22.50
2022-11-30T12:04:57.863Z,22.20
2022-11-30T12:10:16.684Z,23.42
2022-11-30T12:15:41.816Z,21.80
2022-11-30T12:21:10.403Z,21.53
2022-11-30T12:26:51.020Z,21.57
2022-11-30T12:32:03.075Z,21.27
2022-11-30T12:37:30.966Z,22.13
2022-11-30T12:43:07.235Z,22.17
2022-11-30T12:48:35.136Z,21.23
2022-11-30T12:53:59.206Z,22.40
2022-11-30T12:59:17.787Z,22.27
2022-11-30T13:04:42.952Z,21.87
2022-11-30T13:09:52.218Z,22.10
2022-11-30T13:14:59.783Z,21.40
2022-11-30T13:20:12.171Z,21.27
2022-11-30T13:26:06.271Z,20.93
2022-11-30T13:31:01.758Z,20.33
2022-11-30T13:36:07.114Z,20.20
2022-11-30T13:41:10.424Z,20.13
2022-11-30T13:46:16.218Z,22.33
2022-11-30T13:51:40.008Z,23.07
2022-11-30T13:56:48.425Z,22.93
2022-11-30T14:07:35.572Z,22.17
2022-11-30T14:12:45.936Z,22.50
2022-11-30T14:17:49.288Z,22.83
2022-11-30T14:22:52.425Z,22.23
2022-11-30T14:27:57.642Z,24.17
2022-11-30T14:33:15.297Z,23.40
2022-11-30T14:43:33.455Z,23.10
2022-11-30T14:48:36.241Z,23.80
2022-11-30T14:53:44.868Z,21.27
2022-11-30T14:58:53.198Z,23.07
2022-11-30T15:04:01.939Z,21.63
2022-11-30T15:09:05.417Z,22.67
2022-11-30T15:14:10.816Z,23.60
2022-11-30T15:19:22.298Z,20.67
2022-11-30T15:29:35.988Z,20.57
2022-11-30T15:34:56.835Z,22.87
2022-11-30T15:40:03.218Z,22.52
2022-11-30T15:45:26.732Z,21.97
2022-11-30T15:50:29.343Z,22.97
2022-11-30T15:55:47.567Z,24.57
2022-11-30T16:01:05.639Z,23.60
2022-11-30T16:06:18.590Z,23.23
2022-11-30T16:11:21.424Z,23.13
2022-11-30T16:16:32.295Z,23.27
2022-11-30T16:21:35.099Z,16.52
2022-11-30T16:26:53.110Z,23.27
2022-11-30T16:31:56.023Z,23.70
2022-11-30T16:36:58.941Z,23.17
2022-11-30T16:42:01.551Z,30.63
2022-11-30T16:47:04.259Z,24.83
2022-11-30T16:52:09.529Z,23.27
2022-11-30T16:57:12.072Z,25.30
2022-11-30T17:02:21.937Z,23.50
2022-11-30T17:07:24.637Z,22.50
2022-11-30T17:12:27.200Z,24.93
2022-11-30T17:17:29.804Z,24.17
2022-11-30T17:22:33.922Z,25.00
2022-11-30T17:27:36.485Z,23.50
2022-11-30T17:32:39.325Z,23.47
2022-11-30T17:37:41.871Z,22.57
2022-11-30T17:42:45.253Z,21.90
2022-11-30T17:47:47.885Z,22.30
2022-11-30T17:52:50.495Z,23.37
2022-11-30T17:57:53.212Z,23.40
2022-11-30T18:02:55.922Z,23.90
2022-11-30T18:07:58.851Z,22.70
2022-11-30T18:13:01.478Z,23.60
2022-11-30T18:18:04.166Z,22.03
2022-11-30T18:23:07.387Z,26.77
2022-11-30T18:28:10.043Z,24.60
2022-11-30T18:33:12.605Z,23.93
2022-11-30T18:38:15.878Z,23.17
2022-11-30T18:43:18.539Z,23.53
2022-11-30T18:48:21.150Z,22.47
2022-11-30T18:53:23.919Z,23.43
2022-11-30T18:58:26.536Z,22.30
2022-11-30T19:03:29.810Z,23.07
2022-11-30T19:08:32.520Z,22.23
2022-11-30T19:13:36.007Z,21.83
2022-11-30T19:18:38.999Z,22.47
2022-11-30T19:23:41.707Z,21.40
2022-11-30T19:28:45.610Z,22.80
2022-11-30T19:33:50.463Z,22.33
2022-11-30T19:38:53.801Z,22.83
2022-11-30T19:44:03.270Z,23.63
2022-11-30T19:49:08.596Z,23.67
2022-11-30T19:54:11.196Z,22.93
2022-11-30T19:59:13.712Z,22.83
2022-11-30T20:04:16.452Z,23.03
2022-11-30T20:09:19.064Z,22.97
2022-11-30T20:14:23.459Z,22.07
2022-11-30T20:19:26.015Z,24.13
2022-11-30T20:24:28.748Z,22.63
2022-11-30T20:29:31.333Z,23.77
2022-11-30T20:34:39.710Z,25.27
2022-11-30T20:39:46.197Z,23.10
2022-11-30T20:44:49.832Z,37.27
2022-11-30T20:49:52.612Z,24.27
2022-11-30T20:54:55.198Z,21.63
2022-11-30T20:59:57.797Z,22.40
2022-11-30T21:05:00.408Z,22.47
2022-11-30T21:10:03.983Z,21.90
2022-11-30T21:15:07.376Z,19.87
2022-11-30T21:20:10.496Z,19.30
2022-11-30T21:25:13.102Z,20.50
2022-11-30T21:30:15.693Z,20.70
2022-11-30T21:35:18.271Z,21.57
2022-11-30T21:40:21.418Z,19.87
2022-11-30T21:45:24.029Z,20.40
2022-11-30T21:50:27.439Z,19.80
2022-11-30T21:55:30.106Z,20.83
2022-11-30T22:00:32.666Z,21.50
2022-11-30T22:05:35.251Z,18.03
2022-11-30T22:10:37.939Z,18.63
2022-11-30T22:15:40.592Z,19.23
2022-11-30T22:20:43.283Z,20.80
2022-11-30T22:25:45.959Z,19.40
2022-11-30T22:30:48.553Z,20.60
2022-11-30T22:35:51.117Z,21.67
2022-11-30T22:40:53.667Z,20.33
2022-11-30T22:46:06.170Z,21.33
2022-11-30T22:51:11.792Z,20.83
2022-11-30T22:56:20.531Z,19.90
2022-11-30T23:01:25.713Z,20.80
2022-11-30T23:06:28.852Z,21.00
2022-11-30T23:11:31.994Z,20.13
2022-11-30T23:16:38.033Z,21.40
2022-11-30T23:21:42.472Z,23.03
2022-11-30T23:26:45.157Z,23.50
2022-11-30T23:31:48.431Z,21.13
2022-11-30T23:36:51.553Z,19.87
2022-11-30T23:41:54.066Z,23.33
2022-11-30T23:46:57.312Z,20.80
2022-11-30T23:52:00.074Z,21.80
2022-11-30T23:57:02.698Z,20.10
